Time;durP1;ratioP1;P1;durP2;ratioP2;P2;SDS_P1;SDS_P2;PMS_P1;PMS_P2;Temp;Humidity;BMP_temperature;BMP_pressure;BME280_temperature;BME280_humidity;BME280_pressure;Samples;Min_cycle;Max_cycle;Signal;HPM_P1;HPM_P2
2021/01/29 00:00:44;;;;;;;2.20;0.55;;;15.10;92.30;;;;;;4195398;28;20053;-73
2021/01/29 00:02:46;;;;;;;0.55;0.50;;;15.40;91.60;;;;;;4195349;28;20044;-72
2021/01/29 00:04:48;;;;;;;0.82;0.50;;;15.40;91.30;;;;;;4195356;28;20440;-72
2021/01/29 00:06:50;;;;;;;0.95;0.68;;;16.00;90.50;;;;;;4195630;28;20044;-73
2021/01/29 00:08:52;;;;;;;1.45;0.60;;;15.60;91.50;;;;;;4195383;28;20052;-71
2021/01/29 00:10:54;;;;;;;0.98;0.40;;;15.20;91.90;;;;;;4195336;28;20049;-70
2021/01/29 00:12:56;;;;;;;0.98;0.50;;;15.40;91.60;;;;;;4195260;28;20131;-70
2021/01/29 00:14:59;;;;;;;1.13;0.63;;;15.30;91.70;;;;;;4195454;28;20153;-70
2021/01/29 00:17:01;;;;;;;2.00;0.60;;;15.00;92.70;;;;;;4195380;28;20052;-69
2021/01/29 00:19:03;;;;;;;0.50;0.40;;;15.00;93.60;;;;;;4195084;28;20052;-71
2021/01/29 00:21:05;;;;;;;0.47;0.40;;;14.80;93.30;;;;;;4195399;28;20547;-72
2021/01/29 00:23:07;;;;;;;0.93;0.50;;;15.20;92.40;;;;;;4195369;28;20053;-71
2021/01/29 00:25:11;;;;;;;2.47;0.50;;;15.30;92.10;;;;;;4194956;28;20120;-71
2021/01/29 00:27:14;;;;;;;0.38;0.35;;;15.30;92.40;;;;;;4195406;28;20052;-71
2021/01/29 00:29:15;;;;;;;0.65;0.30;;;15.00;93.40;;;;;;4210267;28;20228;-70
2021/01/29 00:31:18;;;;;;;2.25;0.60;;;14.90;93.40;;;;;;4211872;28;20048;-71
2021/01/29 00:33:22;;;;;;;0.30;0.30;;;14.80;93.70;;;;;;4204293;28;20219;-71
2021/01/29 00:35:27;;;;;;;0.50;0.47;;;14.90;92.90;;;;;;4195484;28;20048;-72
2021/01/29 00:37:28;;;;;;;1.20;0.50;;;14.90;93.10;;;;;;4195388;28;20473;-72
2021/01/29 00:39:30;;;;;;;0.77;0.30;;;15.00;93.20;;;;;;4195576;28;20082;-72
2021/01/29 00:41:32;;;;;;;2.88;0.47;;;15.00;93.00;;;;;;4196048;28;20048;-72
2021/01/29 00:43:33;;;;;;;1.40;0.50;;;15.10;92.70;;;;;;4195644;28;20259;-71
2021/01/29 00:45:36;;;;;;;0.50;0.30;;;15.10;92.80;;;;;;4177798;28;20378;-70
2021/01/29 00:47:39;;;;;;;0.38;0.30;;;14.80;93.10;;;;;;4195989;28;20045;-70
2021/01/29 00:49:41;;;;;;;2.70;0.80;;;15.20;92.30;;;;;;4196931;28;20045;-71
2021/01/29 00:51:43;;;;;;;3.97;0.80;;;14.80;93.00;;;;;;4198331;28;20052;-72
2021/01/29 00:53:45;;;;;;;0.73;0.30;;;14.80;93.00;;;;;;4198085;28;20053;-70
2021/01/29 00:55:47;;;;;;;1.48;0.30;;;15.10;92.70;;;;;;4197925;28;20048;-71
2021/01/29 00:57:49;;;;;;;3.15;0.30;;;14.90;92.80;;;;;;4197811;28;20047;-71
2021/01/29 00:59:51;;;;;;;1.52;0.40;;;14.60;93.10;;;;;;4197921;28;20053;-75
2021/01/29 01:01:53;;;;;;;1.13;0.30;;;14.60;93.40;;;;;;4197911;28;20547;-74
2021/01/29 01:03:56;;;;;;;2.05;0.73;;;14.70;93.10;;;;;;4198336;28;20040;-72
2021/01/29 01:05:58;;;;;;;1.52;0.52;;;15.10;92.30;;;;;;4197922;28;20349;-74
2021/01/29 01:07:59;;;;;;;2.60;0.65;;;15.30;91.70;;;;;;4198259;28;20648;-70
2021/01/29 01:10:01;;;;;;;2.22;0.43;;;15.00;96.90;;;;;;4198724;28;20045;-74
2021/01/29 01:12:03;;;;;;;1.50;0.60;;;15.10;93.00;;;;;;4199716;28;20053;-71
2021/01/29 01:14:05;;;;;;;1.08;0.35;;;15.00;93.30;;;;;;4199342;28;20488;-73
2021/01/29 01:16:07;;;;;;;2.72;0.80;;;15.10;92.80;;;;;;4182030;28;20148;-71
2021/01/29 01:18:10;;;;;;;0.98;0.47;;;14.90;92.60;;;;;;4199187;28;20040;-69
2021/01/29 01:20:15;;;;;;;1.35;0.68;;;14.90;92.80;;;;;;4198853;28;20067;-72
2021/01/29 01:22:16;;;;;;;0.85;0.40;;;14.70;92.50;;;;;;4199187;28;20097;-72
2021/01/29 01:24:18;;;;;;;1.38;0.40;;;14.70;93.40;;;;;;4198806;28;20083;-72
2021/01/29 01:26:20;;;;;;;0.85;0.50;;;14.50;97.60;;;;;;4197879;28;20055;-72
2021/01/29 01:28:22;;;;;;;4.45;1.20;;;14.30;97.10;;;;;;4205203;28;20081;-71
2021/01/29 01:30:27;;;;;;;1.63;0.88;;;14.40;99.90;;;;;;4214241;28;20052;-70
2021/01/29 01:32:29;;;;;;;3.50;0.52;;;14.20;95.60;;;;;;4213669;28;20583;-70
2021/01/29 01:34:31;;;;;;;1.65;0.45;;;13.80;96.60;;;;;;4197993;28;20044;-70
2021/01/29 01:36:33;;;;;;;4.00;0.40;;;13.80;96.70;;;;;;4198257;28;20110;-71
2021/01/29 01:38:35;;;;;;;1.17;0.35;;;13.70;94.30;;;;;;4198344;28;20045;-70
2021/01/29 01:40:39;;;;;;;1.83;0.40;;;14.10;93.30;;;;;;4198366;28;20052;-73
2021/01/29 01:42:41;;;;;;;1.35;0.40;;;14.10;94.30;;;;;;4198266;28;20127;-71
2021/01/29 01:44:44;;;;;;;1.70;0.40;;;14.40;93.50;;;;;;4198621;28;20056;-70
2021/01/29 01:46:46;;;;;;;2.00;0.40;;;14.80;92.50;;;;;;4197460;28;20117;-69
2021/01/29 01:49:07;;;;;;;0.50;0.30;;;14.70;90.40;;;;;;4197118;28;20428;-73
2021/01/29 01:51:17;;;;;;;1.15;0.35;;;14.70;92.00;;;;;;4179563;28;20463;-69
2021/01/29 01:53:24;;;;;;;0.90;0.40;;;15.30;90.40;;;;;;4196993;28;20048;-71
2021/01/29 01:55:31;;;;;;;1.48;0.38;;;15.10;90.30;;;;;;4196864;28;20423;-72
2021/01/29 01:57:34;;;;;;;5.03;0.40;;;15.10;86.60;;;;;;4197204;28;20055;-70
2021/01/29 01:59:41;;;;;;;2.53;0.60;;;15.20;89.00;;;;;;4196735;28;20055;-74
2021/01/29 02:01:44;;;;;;;0.88;0.20;;;15.20;87.90;;;;;;4196607;28;20106;-73
2021/01/29 02:03:46;;;;;;;1.65;0.30;;;15.60;86.30;;;;;;4196914;28;20071;-74
2021/01/29 02:05:49;;;;;;;1.27;0.40;;;15.80;87.30;;;;;;4196663;28;20051;-71
2021/01/29 02:07:53;;;;;;;0.30;0.17;;;15.60;85.70;;;;;;4196785;28;20044;-69
2021/01/29 02:09:58;;;;;;;0.75;0.45;;;15.90;86.70;;;;;;4196533;28;20041;-74
2021/01/29 02:11:59;;;;;;;2.13;0.65;;;16.00;84.80;;;;;;4178925;28;20602;-71
2021/01/29 02:14:01;;;;;;;1.38;0.35;;;15.90;84.80;;;;;;4196617;28;20382;-70
2021/01/29 02:16:18;;;;;;;1.80;0.55;;;16.10;85.70;;;;;;4196718;28;20056;-71
2021/01/29 02:18:30;;;;;;;1.15;0.45;;;16.20;85.40;;;;;;4196443;28;20048;-73
2021/01/29 02:20:47;;;;;;;1.50;0.40;;;16.00;83.90;;;;;;4196796;28;20049;-69
2021/01/29 02:23:17;;;;;;;5.05;0.57;;;15.70;81.10;;;;;;4196569;28;20135;-71
2021/01/29 02:26:03;;;;;;;3.60;0.85;;;15.30;83.30;;;;;;4162571;28;20110;-72
2021/01/29 02:28:12;;;;;;;1.75;0.63;;;15.00;88.30;;;;;;4201604;28;20043;-73
2021/01/29 02:30:50;;;;;;;1.25;0.52;;;15.00;86.30;;;;;;4213821;28;20105;-74
2021/01/29 02:33:29;;;;;;;2.13;0.60;;;14.60;86.20;;;;;;4210004;28;20413;-75
2021/01/29 02:36:08;;;;;;;0.60;0.43;;;14.10;87.10;;;;;;4197326;28;20048;-70
2021/01/29 02:38:52;;;;;;;1.80;1.13;;;14.50;87.90;;;;;;4197370;28;20440;-71
2021/01/29 02:40:59;;;;;;;4.43;0.90;;;14.40;87.20;;;;;;4128839;28;20554;-71
2021/01/29 02:43:22;;;;;;;3.67;0.60;;;14.50;87.90;;;;;;4192756;28;20078;-70
2021/01/29 02:45:29;;;;;;;1.10;0.50;;;14.80;87.70;;;;;;4195988;28;20048;-71
2021/01/29 02:47:41;;;;;;;0.82;0.60;;;15.20;84.20;;;;;;4196323;28;20421;-74
2021/01/29 02:50:14;;;;;;;2.85;1.02;;;15.30;84.40;;;;;;4196016;28;20052;-69
2021/01/29 02:52:21;;;;;;;2.63;0.95;;;15.20;84.40;;;;;;4196039;28;20493;-70
2021/01/29 02:54:34;;;;;;;3.75;0.95;;;15.60;81.90;;;;;;4195913;28;20044;-69
2021/01/29 02:56:44;;;;;;;2.90;1.05;;;15.80;82.10;;;;;;4195829;28;20374;-71
2021/01/29 02:58:51;;;;;;;1.63;0.50;;;15.20;84.90;;;;;;4196363;28;20040;-71
2021/01/29 03:01:03;;;;;;;2.10;0.65;;;15.20;83.80;;;;;;4195941;28;20049;-72
2021/01/29 03:03:08;;;;;;;1.88;0.57;;;15.40;84.60;;;;;;4196065;28;20106;-72
2021/01/29 03:05:14;;;;;;;2.08;0.60;;;15.70;84.40;;;;;;4196187;28;20098;-72
2021/01/29 03:07:22;;;;;;;3.15;0.80;;;15.80;81.40;;;;;;4195806;28;20139;-72
2021/01/29 03:09:30;;;;;;;5.65;1.10;;;15.60;80.40;;;;;;4178111;28;20124;-69
2021/01/29 03:11:38;;;;;;;4.95;1.25;;;15.30;80.80;;;;;;4195680;28;20049;-70
2021/01/29 03:13:44;;;;;;;3.65;1.00;;;15.30;82.70;;;;;;4195556;28;20059;-73
2021/01/29 03:15:52;;;;;;;4.25;1.35;;;15.30;82.70;;;;;;4196559;28;20118;-71
2021/01/29 03:17:58;;;;;;;5.28;1.10;;;15.30;83.40;;;;;;4196546;28;20064;-73
2021/01/29 03:20:05;;;;;;;3.72;0.80;;;15.50;82.00;;;;;;4178598;28;20036;-71
2021/01/29 03:22:13;;;;;;;2.97;1.15;;;15.60;83.20;;;;;;4195920;28;20045;-71
2021/01/29 03:24:21;;;;;;;5.13;0.98;;;15.10;83.50;;;;;;4196213;28;20106;-68
2021/01/29 03:26:28;;;;;;;1.42;0.60;;;15.20;84.90;;;;;;4196844;28;20052;-72
2021/01/29 03:28:35;;;;;;;6.60;1.02;;;15.30;84.20;;;;;;4205957;28;20097;-71
2021/01/29 03:30:42;;;;;;;6.18;0.90;;;15.30;82.00;;;;;;4213684;28;20048;-69
2021/01/29 03:32:48;;;;;;;4.45;1.13;;;15.30;85.20;;;;;;4211047;28;20049;-74
2021/01/29 03:34:59;;;;;;;5.22;1.08;;;14.80;83.50;;;;;;4197458;28;20048;-73
2021/01/29 03:37:07;;;;;;;4.05;0.95;;;14.90;86.20;;;;;;4197035;28;20044;-74
2021/01/29 03:39:14;;;;;;;5.97;1.08;;;15.10;83.80;;;;;;4197576;28;20052;-72
2021/01/29 03:41:22;;;;;;;6.13;1.30;;;15.20;84.60;;;;;;4197013;28;20053;-74
2021/01/29 03:43:30;;;;;;;6.30;1.30;;;15.20;84.80;;;;;;4197622;28;20041;-71
2021/01/29 03:45:43;;;;;;;5.38;1.15;;;15.20;81.70;;;;;;4197493;28;20056;-69
2021/01/29 03:47:55;;;;;;;8.70;1.40;;;15.30;81.90;;;;;;4197598;28;20041;-73
2021/01/29 03:50:11;;;;;;;7.65;1.85;;;15.20;82.70;;;;;;4197806;28;20467;-70
2021/01/29 03:52:18;;;;;;;5.15;1.65;;;15.40;83.60;;;;;;4196789;28;20481;-70
2021/01/29 03:54:26;;;;;;;7.78;1.85;;;15.40;83.50;;;;;;4196113;28;20245;-72
2021/01/29 03:56:49;;;;;;;8.60;2.33;;;15.60;82.40;;;;;;4197258;28;20114;-69
2021/01/29 03:58:57;;;;;;;3.33;1.02;;;15.50;84.70;;;;;;4197207;28;20473;-72
2021/01/29 04:01:06;;;;;;;6.53;1.38;;;15.70;83.10;;;;;;4197750;28;20045;-69
2021/01/29 04:03:16;;;;;;;7.47;1.75;;;15.80;81.00;;;;;;4198240;28;20187;-72
2021/01/29 04:05:23;;;;;;;9.70;1.88;;;15.60;81.10;;;;;;4197476;28;20045;-71
2021/01/29 04:07:29;;;;;;;8.82;1.55;;;15.40;82.50;;;;;;4197271;28;20052;-71
2021/01/29 04:09:37;;;;;;;10.65;2.00;;;15.60;81.10;;;;;;4196144;28;20045;-71
2021/01/29 04:11:44;;;;;;;10.50;1.73;;;16.00;80.30;;;;;;4196035;28;20049;-71
2021/01/29 04:13:51;;;;;;;13.77;1.95;;;15.90;80.10;;;;;;4196134;28;20051;-71
2021/01/29 04:15:54;;;;;;;7.63;1.92;;;15.70;79.70;;;;;;4196129;28;20052;-73
2021/01/29 04:18:01;;;;;;;4.47;1.27;;;15.70;81.60;;;;;;4196169;28;20128;-71
2021/01/29 04:20:15;;;;;;;10.68;1.85;;;16.10;80.70;;;;;;4195789;28;20098;-71
2021/01/29 04:22:22;;;;;;;11.80;2.33;;;15.60;80.60;;;;;;4195326;28;20136;-71
2021/01/29 04:24:27;;;;;;;6.22;1.27;;;15.40;83.00;;;;;;4195953;28;20397;-70
2021/01/29 04:26:33;;;;;;;5.10;1.40;;;15.80;81.00;;;;;;4198575;28;20040;-72
2021/01/29 04:28:40;;;;;;;10.10;2.03;;;16.00;82.30;;;;;;4207886;28;20056;-72
2021/01/29 04:30:45;;;;;;;15.15;2.47;;;15.70;80.90;;;;;;4215279;28;20060;-71
2021/01/29 04:32:52;;;;;;;13.93;2.67;;;15.40;80.30;;;;;;4212106;28;20059;-71
2021/01/29 04:34:57;;;;;;;10.18;2.20;;;15.30;82.00;;;;;;4198265;28;20044;-70
2021/01/29 04:37:05;;;;;;;14.30;2.42;;;15.30;80.40;;;;;;4198440;28;20048;-72
2021/01/29 04:39:11;;;;;;;14.25;2.03;;;15.30;81.20;;;;;;4198388;28;20044;-69
2021/01/29 04:41:38;;;;;;;18.60;2.65;;;15.20;82.40;;;;;;4198128;28;20056;-72
2021/01/29 04:44:04;;;;;;;14.15;3.08;;;15.10;80.30;;;;;;4198095;28;20052;-70
2021/01/29 04:46:22;;;;;;;10.05;1.90;;;15.30;80.00;;;;;;4197586;28;20113;-69
2021/01/29 04:48:34;;;;;;;19.63;3.30;;;15.20;80.80;;;;;;4198124;28;20057;-72
2021/01/29 04:50:45;;;;;;;13.90;2.33;;;14.90;79.30;;;;;;4198161;28;20477;-71
2021/01/29 04:53:26;;;;;;;14.95;3.17;;;14.90;79.90;;;;;;4198022;28;20493;-70
2021/01/29 04:55:37;;;;;;;17.13;3.22;;;14.80;79.20;;;;;;4198124;28;20044;-70
2021/01/29 04:57:59;;;;;;;18.73;3.33;;;14.50;81.10;;;;;;4198145;28;20094;-72
2021/01/29 05:00:22;;;;;;;15.70;3.10;;;14.20;80.80;;;;;;4197890;28;20098;-71
2021/01/29 05:02:50;;;;;;;18.70;3.80;;;14.60;83.40;;;;;;4197943;28;20090;-70
2021/01/29 05:05:33;;;;;;;26.95;3.85;;;14.90;79.70;;;;;;4183707;28;20113;-70
2021/01/29 05:08:28;;;;;;;18.90;3.55;;;14.80;76.60;;;;;;4199710;28;20052;-71
2021/01/29 05:10:51;;;;;;;21.45;3.58;;;14.40;77.80;;;;;;4199355;28;20477;-70
2021/01/29 05:13:16;;;;;;;22.27;3.88;;;14.80;80.80;;;;;;4198385;28;20094;-72
2021/01/29 05:15:39;;;;;;;16.05;3.70;;;15.10;82.70;;;;;;4198702;28;20090;-74
2021/01/29 05:17:56;;;;;;;21.45;3.78;;;14.90;78.90;;;;;;4199515;28;20045;-72
2021/01/29 05:20:10;;;;;;;24.50;4.38;;;14.90;76.50;;;;;;4198643;28;20592;-69
2021/01/29 05:22:37;;;;;;;12.77;3.50;;;15.10;79.10;;;;;;4198428;28;20049;-72
2021/01/29 05:25:08;;;;;;;15.70;3.60;;;15.10;77.40;;;;;;4198567;28;20048;-69
2021/01/29 05:27:40;;;;;;;17.58;3.25;;;14.80;77.50;;;;;;4197827;28;20045;-70
2021/01/29 05:29:59;;;;;;;17.63;3.92;;;14.80;77.70;;;;;;4181263;28;20049;-71
2021/01/29 05:32:35;;;;;;;23.15;3.90;;;15.00;77.20;;;;;;4181358;28;20124;-71
2021/01/29 05:35:00;;;;;;;27.60;5.25;;;14.90;79.50;;;;;;4181191;28;20037;-72
2021/01/29 05:37:42;;;;;;;28.17;3.97;;;14.70;77.80;;;;;;4171995;28;20045;-69
2021/01/29 05:39:55;;;;;;;19.92;3.53;;;15.30;78.70;;;;;;4181001;28;20049;-70
2021/01/29 05:42:15;;;;;;;22.67;3.78;;;15.40;75.60;;;;;;4181090;28;20052;-70
2021/01/29 05:44:58;;;;;;;22.05;4.15;;;15.10;76.20;;;;;;4181025;28;20045;-70
2021/01/29 05:47:24;;;;;;;19.02;3.40;;;15.10;78.60;;;;;;4180793;28;20134;-70
2021/01/29 05:49:35;;;;;;;22.88;4.28;;;15.30;78.00;;;;;;4180642;28;20048;-69
2021/01/29 05:52:04;;;;;;;12.38;3.30;;;15.20;76.60;;;;;;4180604;28;20558;-72
2021/01/29 05:54:41;;;;;;;15.82;2.92;;;15.20;80.70;;;;;;4180905;28;20041;-71
2021/01/29 05:56:50;;;;;;;;;;;15.70;79.50;;;;;;4167294;28;20041;-71
2021/01/29 05:59:08;;;;;;;22.52;4.35;;;15.80;76.60;;;;;;4181055;28;19928;-71
2021/01/29 06:01:54;;;;;;;19.65;3.10;;;15.20;77.70;;;;;;4181465;28;20107;-70
2021/01/29 06:04:27;;;;;;;15.20;3.30;;;14.80;78.60;;;;;;4182394;28;20053;-72
2021/01/29 06:07:03;;;;;;;24.10;3.95;;;15.30;80.20;;;;;;4183226;28;20139;-74
2021/01/29 06:09:31;;;;;;;21.15;4.10;;;15.80;75.10;;;;;;4184176;28;20076;-72
2021/01/29 06:11:45;;;;;;;16.88;3.45;;;15.40;76.80;;;;;;4183091;28;20053;-72
2021/01/29 06:14:24;;;;;;;30.00;4.32;;;15.40;79.00;;;;;;4182311;28;20049;-72
2021/01/29 06:17:02;;;;;;;21.98;4.88;;;14.80;77.90;;;;;;4181906;28;20057;-72
2021/01/29 06:19:37;;;;;;;23.95;4.38;;;14.30;81.80;;;;;;4165883;28;20045;-70
2021/01/29 06:22:07;;;;;;;24.95;4.15;;;14.30;79.10;;;;;;4181520;28;20049;-72
2021/01/29 06:24:28;;;;;;;19.30;4.55;;;14.60;83.10;;;;;;4183825;28;20044;-73
2021/01/29 06:26:53;;;;;;;22.02;4.63;;;14.50;78.70;;;;;;4196724;28;20410;-71
2021/01/29 06:29:24;;;;;;;28.63;4.78;;;14.60;79.20;;;;;;4190860;28;20048;-71
2021/01/29 06:32:11;;;;;;;28.23;4.72;;;14.50;80.50;;;;;;4212980;28;20055;-73
2021/01/29 06:34:47;;;;;;;24.33;4.13;;;14.50;83.00;;;;;;4117276;28;20096;-70
2021/01/29 06:36:58;;;;;;;26.08;4.28;;;15.00;80.60;;;;;;4185672;28;20049;-70
2021/01/29 06:39:24;;;;;;;25.98;4.25;;;14.90;76.10;;;;;;4178559;28;20574;-70
2021/01/29 06:41:49;;;;;;;16.23;3.47;;;14.70;77.70;;;;;;4196687;28;20049;-71
2021/01/29 06:44:10;;;;;;;26.17;4.22;;;14.80;81.30;;;;;;4196601;28;20554;-70
2021/01/29 06:46:41;;;;;;;14.13;2.92;;;14.90;78.00;;;;;;4196228;28;20053;-70
2021/01/29 06:49:05;;;;;;;20.15;3.70;;;14.30;82.00;;;;;;4187829;28;20049;-72
2021/01/29 06:51:43;;;;;;;20.70;4.25;;;14.10;84.60;;;;;;4192965;28;20048;-73
2021/01/29 06:54:08;;;;;;;19.73;3.47;;;14.40;83.80;;;;;;4183150;28;20055;-70
2021/01/29 06:56:49;;;;;;;30.88;4.30;;;15.00;81.70;;;;;;4196246;28;20068;-71
2021/01/29 06:59:26;;;;;;;18.30;3.45;;;15.40;79.60;;;;;;4196970;28;20447;-70
2021/01/29 07:01:54;;;;;;;11.93;2.85;;;14.90;78.30;;;;;;4191532;28;20041;-71
2021/01/29 07:04:39;;;;;;;18.33;3.35;;;15.50;79.40;;;;;;4194299;28;20041;-68
2021/01/29 07:06:53;;;;;;;25.30;3.97;;;15.60;80.80;;;;;;4197086;28;20546;-72
2021/01/29 07:09:04;;;;;;;22.20;4.00;;;15.40;79.20;;;;;;4179080;28;20083;-71
2021/01/29 07:11:29;;;;;;;12.35;3.30;;;15.20;82.00;;;;;;4178906;28;20525;-72
2021/01/29 07:13:47;;;;;;;23.17;3.95;;;15.70;79.70;;;;;;4196126;28;20044;-72
2021/01/29 07:16:08;;;;;;;81.28;5.55;;;16.20;77.80;;;;;;4196823;28;20465;-72
2021/01/29 07:18:25;;;;;;;50.85;4.57;;;16.10;77.00;;;;;;4197308;28;20119;-71
2021/01/29 07:21:06;;;;;;;50.25;4.05;;;16.00;75.80;;;;;;4174263;28;20041;-71
2021/01/29 07:23:26;;;;;;;26.77;4.38;;;15.50;76.10;;;;;;4128190;28;20046;-72
2021/01/29 07:25:36;;;;;;;35.55;3.67;;;15.10;76.00;;;;;;4162856;28;20487;-71
2021/01/29 07:27:45;;;;;;;38.78;5.00;;;16.10;74.50;;;;;;4186983;28;20037;-72
2021/01/29 07:30:05;;;;;;;19.15;3.33;;;16.40;76.20;;;;;;4188283;28;20512;-71
2021/01/29 07:32:18;;;;;;;28.33;3.50;;;16.90;74.40;;;;;;4195821;28;20289;-71
2021/01/29 07:34:28;;;;;;;19.50;3.40;;;16.90;74.20;;;;;;4195987;28;20493;-72
2021/01/29 07:36:59;;;;;;;21.10;3.13;;;16.40;73.20;;;;;;4178033;28;20053;-72
2021/01/29 07:39:19;;;;;;;22.45;3.80;;;16.40;76.10;;;;;;4195759;28;20052;-70
2021/01/29 07:41:36;;;;;;;19.20;3.28;;;16.40;75.80;;;;;;4196245;28;20514;-72
2021/01/29 07:43:48;;;;;;;22.30;3.30;;;16.40;73.10;;;;;;4178241;28;20041;-70
2021/01/29 07:46:21;;;;;;;15.63;3.40;;;16.60;75.40;;;;;;4196237;28;20465;-70
2021/01/29 07:48:44;;;;;;;24.70;3.72;;;16.70;72.00;;;;;;4195742;28;20052;-69
2021/01/29 07:50:52;;;;;;;20.55;3.42;;;16.60;75.10;;;;;;4187354;28;20045;-74
2021/01/29 07:53:01;;;;;;;16.55;3.67;;;16.70;74.50;;;;;;4198379;28;20464;-70
2021/01/29 07:55:15;;;;;;;16.23;3.30;;;17.30;72.60;;;;;;4198988;28;20056;-69
2021/01/29 07:57:32;;;;;;;20.15;3.90;;;17.00;72.70;;;;;;4198360;28;20049;-75
2021/01/29 08:00:00;;;;;;;18.02;3.55;;;16.30;73.50;;;;;;4201959;28;20389;-72
2021/01/29 08:02:12;;;;;;;17.45;3.90;;;15.80;73.50;;;;;;4199003;28;20072;-73
2021/01/29 08:04:51;;;;;;;15.70;2.60;;;16.00;76.80;;;;;;4199858;28;20045;-73
2021/01/29 08:07:00;;;;;;;22.38;3.67;;;16.70;73.70;;;;;;4184022;28;20469;-69
2021/01/29 08:09:11;;;;;;;19.63;3.80;;;16.30;73.10;;;;;;4199365;28;20044;-72
2021/01/29 08:11:17;;;;;;;19.33;3.13;;;16.10;72.80;;;;;;4197558;28;20068;-71
2021/01/29 08:13:28;;;;;;;17.55;3.42;;;16.60;74.00;;;;;;4182123;28;20087;-73
2021/01/29 08:15:39;;;;;;;17.13;3.05;;;17.40;71.50;;;;;;4212049;28;20070;-74
2021/01/29 08:18:21;;;;;;;18.90;3.67;;;17.30;69.10;;;;;;4213035;28;20051;-70
2021/01/29 08:20:36;;;;;;;15.02;2.83;;;16.80;70.60;;;;;;4183908;28;20102;-70
2021/01/29 08:22:55;;;;;;;15.82;3.97;;;17.00;71.40;;;;;;4191054;28;20040;-72
2021/01/29 08:25:10;;;;;;;21.02;3.90;;;17.20;71.50;;;;;;4195018;28;20504;-70
2021/01/29 08:27:57;;;;;;;17.13;3.45;;;17.60;69.30;;;;;;4195389;28;20456;-70
2021/01/29 08:30:17;;;;;;;17.35;3.85;;;17.30;68.60;;;;;;4130571;28;20105;-69
2021/01/29 08:33:05;;;;;;;18.17;3.50;;;16.00;67.20;;;;;;4129205;28;20084;-69
2021/01/29 08:35:29;;;;;;;14.00;3.03;;;16.60;69.10;;;;;;4157761;28;20286;-68
2021/01/29 08:37:46;;;;;;;26.67;4.03;;;17.10;69.50;;;;;;4186992;28;20208;-68
2021/01/29 08:39:57;;;;;;;19.05;3.00;;;16.30;69.60;;;;;;4194331;28;20072;-69
2021/01/29 08:42:13;;;;;;;12.80;3.63;;;16.30;70.60;;;;;;4192833;28;20131;-68
2021/01/29 08:44:24;;;;;;;16.88;3.80;;;16.40;72.30;;;;;;4196535;28;20098;-68
2021/01/29 08:46:41;;;;;;;19.67;3.42;;;16.80;70.10;;;;;;4197261;28;20045;-70
2021/01/29 08:49:07;;;;;;;11.50;3.03;;;17.30;67.60;;;;;;4196565;28;20444;-69
2021/01/29 08:51:20;;;;;;;16.25;2.65;;;17.80;68.00;;;;;;4197283;28;20049;-70
2021/01/29 08:54:00;;;;;;;20.05;3.97;;;17.80;67.60;;;;;;4195709;28;20037;-68
2021/01/29 08:56:11;;;;;;;15.80;3.42;;;17.40;68.50;;;;;;4194051;28;20040;-69
2021/01/29 08:58:25;;;;;;;15.60;3.50;;;18.10;66.50;;;;;;4196145;28;20043;-71
2021/01/29 09:00:29;;;;;;;16.38;3.72;;;18.10;66.50;;;;;;4198251;28;20063;-70
2021/01/29 09:02:41;;;;;;;13.63;3.33;;;18.10;65.70;;;;;;4199955;28;20546;-70
2021/01/29 09:04:53;;;;;;;12.75;3.35;;;18.40;65.10;;;;;;4193271;28;20118;-71
2021/01/29 09:07:00;;;;;;;15.02;3.22;;;17.70;64.20;;;;;;4197904;28;20392;-70
2021/01/29 09:09:06;;;;;;;16.80;3.42;;;17.90;67.40;;;;;;4194578;28;20055;-71
2021/01/29 09:11:19;;;;;;;29.65;4.07;;;17.60;66.20;;;;;;4197140;28;20082;-71
2021/01/29 09:13:24;;;;;;;24.25;3.70;;;17.50;65.40;;;;;;4195304;28;20040;-69
2021/01/29 09:15:38;;;;;;;22.05;4.65;;;17.90;65.50;;;;;;4196154;28;20048;-69
2021/01/29 09:17:47;;;;;;;25.33;4.47;;;17.80;67.00;;;;;;4196751;28;20049;-70
2021/01/29 09:19:55;;;;;;;20.50;3.90;;;16.80;67.40;;;;;;4197961;28;20040;-69
2021/01/29 09:22:12;;;;;;;18.02;3.75;;;17.50;69.60;;;;;;4194240;28;20094;-71
2021/01/29 09:24:23;;;;;;;22.90;4.50;;;17.30;68.80;;;;;;4193580;28;20443;-70
2021/01/29 09:26:29;;;;;;;20.13;3.75;;;17.00;68.60;;;;;;4190704;28;20318;-71
2021/01/29 09:28:36;;;;;;;21.05;4.15;;;16.50;68.90;;;;;;4200059;28;20044;-71
2021/01/29 09:30:50;;;;;;;26.02;4.65;;;16.50;71.80;;;;;;4190859;28;20063;-71
2021/01/29 09:32:56;;;;;;;18.58;3.83;;;16.50;70.00;;;;;;4192825;28;20040;-72
2021/01/29 09:35:01;;;;;;;26.98;3.97;;;16.60;69.00;;;;;;4191147;28;20460;-70
2021/01/29 09:37:07;;;;;;;13.40;3.00;;;16.60;71.20;;;;;;4185128;28;20486;-69
2021/01/29 09:39:39;;;;;;;17.77;4.55;;;16.80;70.40;;;;;;4188597;28;20052;-69
2021/01/29 09:41:46;;;;;;;22.05;4.82;;;17.40;69.00;;;;;;4195370;28;20052;-70
2021/01/29 09:44:06;;;;;;;19.52;4.45;;;17.40;67.00;;;;;;4196002;28;20055;-69
2021/01/29 09:46:12;;;;;;;19.85;4.20;;;16.90;68.50;;;;;;4185518;28;20052;-70
2021/01/29 09:48:20;;;;;;;24.23;4.35;;;16.50;68.10;;;;;;4192149;28;20095;-69
2021/01/29 09:50:24;;;;;;;24.95;4.43;;;16.50;70.30;;;;;;4193313;28;20087;-70
2021/01/29 09:52:50;;;;;;;22.08;5.15;;;15.80;70.70;;;;;;4186066;28;20056;-69
2021/01/29 09:55:02;;;;;;;21.90;4.72;;;16.00;72.20;;;;;;4187808;28;20519;-70
2021/01/29 09:57:10;;;;;;;21.60;4.45;;;15.90;72.80;;;;;;4184680;28;20056;-69
2021/01/29 09:59:20;;;;;;;18.98;4.53;;;15.90;73.30;;;;;;4190601;28;20045;-69
2021/01/29 10:01:28;;;;;;;24.20;4.35;;;16.10;73.20;;;;;;4183311;28;20082;-69
2021/01/29 10:03:37;;;;;;;17.35;3.30;;;16.60;71.70;;;;;;4189517;28;20131;-70
2021/01/29 10:05:45;;;;;;;24.75;4.88;;;16.70;71.30;;;;;;4190147;28;20063;-69
2021/01/29 10:08:06;;;;;;;24.33;4.82;;;16.70;69.90;;;;;;4194024;28;20508;-69
2021/01/29 10:10:17;;;;;;;22.58;4.25;;;17.20;67.70;;;;;;4194562;28;20114;-68
2021/01/29 10:12:26;;;;;;;22.05;4.10;;;17.00;68.60;;;;;;4189181;28;20416;-71
2021/01/29 10:14:33;;;;;;;18.52;4.50;;;17.60;66.70;;;;;;4192033;28;20052;-69
2021/01/29 10:16:40;;;;;;;19.52;4.70;;;17.10;69.30;;;;;;4187595;28;20049;-72
2021/01/29 10:18:48;;;;;;;23.90;4.20;;;16.80;66.60;;;;;;4191904;28;20068;-70
2021/01/29 10:21:10;;;;;;;19.73;3.67;;;17.30;66.60;;;;;;4186991;28;20148;-69
2021/01/29 10:23:29;;;;;;;20.33;4.03;;;17.50;68.30;;;;;;4193272;28;20525;-69
2021/01/29 10:25:44;;;;;;;19.67;4.57;;;16.90;66.70;;;;;;4189592;28;20060;-68
2021/01/29 10:28:05;;;;;;;23.77;4.25;;;17.20;68.90;;;;;;4188595;28;20143;-68
2021/01/29 10:30:15;;;;;;;25.63;4.65;;;16.80;67.80;;;;;;4189727;28;20072;-68
2021/01/29 10:32:22;;;;;;;25.73;5.03;;;17.00;67.80;;;;;;4190514;28;20049;-71
2021/01/29 10:34:40;;;;;;;19.95;5.03;;;17.00;66.80;;;;;;4191491;28;20052;-69
2021/01/29 10:36:46;;;;;;;19.33;3.80;;;17.40;67.90;;;;;;4183706;28;20049;-70
2021/01/29 10:38:54;;;;;;;17.50;3.95;;;17.40;67.60;;;;;;4196095;28;20076;-73
2021/01/29 10:41:17;;;;;;;23.67;4.65;;;17.70;66.20;;;;;;4193533;28;20067;-69
2021/01/29 10:43:33;;;;;;;33.78;5.03;;;17.30;67.50;;;;;;4191364;28;20325;-70
2021/01/29 10:46:04;;;;;;;28.85;4.65;;;16.80;69.10;;;;;;4194547;28;20056;-69
2021/01/29 10:48:16;;;;;;;20.17;4.90;;;16.80;72.60;;;;;;4190423;28;20124;-68
2021/01/29 10:50:25;;;;;;;17.95;3.72;;;16.40;71.50;;;;;;4170089;28;20514;-69
2021/01/29 10:52:40;;;;;;;18.80;4.38;;;16.30;74.10;;;;;;4175419;28;20052;-69
2021/01/29 10:54:54;;;;;;;19.00;4.45;;;16.50;72.90;;;;;;4168933;28;20107;-70
2021/01/29 10:57:05;;;;;;;24.13;5.13;;;16.90;70.50;;;;;;4190595;28;20128;-70
2021/01/29 10:59:15;;;;;;;19.13;4.55;;;16.20;69.20;;;;;;4192074;28;20052;-67
2021/01/29 11:01:30;;;;;;;24.65;4.53;;;16.80;71.90;;;;;;4178830;28;20045;-66
2021/01/29 11:04:05;;;;;;;17.63;3.50;;;16.40;72.00;;;;;;4195883;28;20040;-66
2021/01/29 11:06:11;;;;;;;23.67;4.90;;;17.30;71.40;;;;;;4157071;28;20056;-68
2021/01/29 11:08:23;;;;;;;19.40;3.92;;;17.60;68.70;;;;;;4189515;28;20092;-68
2021/01/29 11:10:33;;;;;;;29.13;4.82;;;17.40;67.50;;;;;;4191436;28;20608;-68
2021/01/29 11:12:41;;;;;;;22.55;4.00;;;17.20;69.90;;;;;;4193816;28;20135;-69
2021/01/29 11:14:52;;;;;;;15.63;3.72;;;17.60;69.70;;;;;;4190625;28;20059;-70
2021/01/29 11:17:01;;;;;;;16.00;3.58;;;17.40;67.80;;;;;;4193572;28;20044;-70
2021/01/29 11:19:04;;;;;;;16.60;3.70;;;17.70;66.10;;;;;;4180744;28;20386;-68
2021/01/29 11:21:17;;;;;;;16.15;4.00;;;17.80;67.00;;;;;;4183073;28;20056;-70
2021/01/29 11:23:30;;;;;;;17.95;4.00;;;17.60;67.40;;;;;;4189672;28;20074;-70
2021/01/29 11:25:49;;;;;;;15.55;3.15;;;17.80;65.90;;;;;;4188204;28;20076;-68
2021/01/29 11:28:03;;;;;;;18.23;3.33;;;17.10;69.10;;;;;;4186883;28;20075;-70
2021/01/29 11:30:14;;;;;;;19.42;3.88;;;17.60;67.90;;;;;;4186010;28;20045;-70
2021/01/29 11:32:29;;;;;;;30.48;5.30;;;17.50;65.90;;;;;;4194719;28;20044;-71